createdAt,value
2023-03-17T00:01:03.623Z,4.10
2023-03-17T00:06:07.286Z,3.57
2023-03-17T00:11:17.896Z,3.97
2023-03-17T00:16:27.417Z,3.00
2023-03-17T00:21:32.958Z,3.57
2023-03-17T00:26:35.354Z,4.17
2023-03-17T00:31:39.343Z,3.30
2023-03-17T00:36:42.841Z,3.17
2023-03-17T00:46:47.926Z,5.10
2023-03-17T00:51:51.737Z,5.40
2023-03-17T00:56:54.576Z,5.23
2023-03-17T01:01:57.575Z,5.67
2023-03-17T01:07:00.705Z,3.47
2023-03-17T01:12:03.318Z,4.03
2023-03-17T01:17:15.174Z,3.93
2023-03-17T01:22:17.530Z,4.90
2023-03-17T01:27:20.146Z,5.50
2023-03-17T01:32:22.784Z,4.93
2023-03-17T01:37:27.354Z,3.73
2023-03-17T01:42:30.298Z,4.63
2023-03-17T01:47:32.713Z,3.50
2023-03-17T01:52:39.810Z,4.87
2023-03-17T01:57:50.832Z,4.80
2023-03-17T02:02:57.690Z,4.47
2023-03-17T02:08:00.541Z,3.60
2023-03-17T02:13:05.850Z,5.20
2023-03-17T02:18:09.786Z,3.90
2023-03-17T02:23:15.748Z,4.20
2023-03-17T02:28:26.178Z,4.93
2023-03-17T02:33:28.957Z,3.40
2023-03-17T02:38:31.874Z,3.90
2023-03-17T02:43:37.400Z,3.40
2023-03-17T02:48:40.947Z,4.17
2023-03-17T02:53:43.364Z,3.30
2023-03-17T02:58:46.525Z,4.30
2023-03-17T03:03:49.009Z,3.87
2023-03-17T03:08:52.441Z,4.33
2023-03-17T03:13:55.237Z,4.03
2023-03-17T03:18:57.962Z,3.57
2023-03-17T03:24:00.591Z,4.20
2023-03-17T03:29:04.025Z,4.50
2023-03-17T03:34:06.460Z,5.00
2023-03-17T03:39:09.782Z,3.33
2023-03-17T03:44:12.171Z,4.70
2023-03-17T03:49:14.636Z,3.53
2023-03-17T03:54:17.106Z,3.10
2023-03-17T03:59:19.710Z,5.50
2023-03-17T04:04:23.067Z,3.30
2023-03-17T04:09:26.012Z,3.60
2023-03-17T04:14:28.782Z,3.73
2023-03-17T04:19:31.513Z,2.93
2023-03-17T04:24:37.305Z,4.17
2023-03-17T04:29:43.937Z,7.00
2023-03-17T04:34:46.364Z,3.33
2023-03-17T04:39:48.826Z,3.07
2023-03-17T04:44:53.796Z,5.60
2023-03-17T04:49:56.916Z,3.60
2023-03-17T04:54:59.534Z,3.07
2023-03-17T05:00:01.966Z,3.53
2023-03-17T05:05:05.157Z,3.13
2023-03-17T05:10:08.427Z,2.77
2023-03-17T05:15:11.343Z,3.03
2023-03-17T05:20:14.527Z,3.10
2023-03-17T05:25:16.998Z,3.30
2023-03-17T05:30:19.577Z,3.20
2023-03-17T05:35:22.612Z,4.00
2023-03-17T05:40:25.438Z,3.13
2023-03-17T05:45:29.420Z,4.07
2023-03-17T05:50:32.618Z,4.17
2023-03-17T05:55:35.357Z,4.57
2023-03-17T06:00:38.179Z,3.50
2023-03-17T06:05:40.857Z,4.17
2023-03-17T06:10:43.620Z,3.67
2023-03-17T06:15:48.543Z,3.03
2023-03-17T06:20:51.083Z,3.33
2023-03-17T06:25:53.520Z,3.97
2023-03-17T06:30:56.316Z,3.90
2023-03-17T06:36:00.144Z,3.57
2023-03-17T06:41:03.525Z,3.93
2023-03-17T06:46:08.452Z,3.07
2023-03-17T06:51:11.076Z,3.40
2023-03-17T06:56:28.832Z,4.73
2023-03-17T07:01:32.390Z,2.40
2023-03-17T07:06:35.138Z,3.10
2023-03-17T07:11:37.936Z,4.20
2023-03-17T07:16:40.558Z,3.33
2023-03-17T07:21:43.098Z,5.10
2023-03-17T07:26:46.375Z,7.60
2023-03-17T07:31:49.560Z,4.97
2023-03-17T07:36:52.385Z,4.37
2023-03-17T07:41:58.095Z,6.63
2023-03-17T07:47:01.102Z,5.33
2023-03-17T07:52:03.771Z,4.30
2023-03-17T07:57:06.593Z,8.50
2023-03-17T08:02:16.563Z,4.43
2023-03-17T08:07:19.516Z,5.03
2023-03-17T08:12:22.125Z,8.17
2023-03-17T08:17:28.004Z,7.73
2023-03-17T08:22:30.658Z,5.07
2023-03-17T08:27:33.959Z,7.40
2023-03-17T08:32:37.108Z,5.77
2023-03-17T08:37:39.657Z,7.20
2023-03-17T08:42:42.905Z,7.07
2023-03-17T08:47:46.819Z,7.57
2023-03-17T08:52:51.507Z,5.83
2023-03-17T08:57:54.277Z,10.17
2023-03-17T09:02:58.450Z,6.40
2023-03-17T09:08:01.330Z,6.70
2023-03-17T09:13:04.094Z,5.47
2023-03-17T09:18:06.953Z,3.53
2023-03-17T09:23:11.803Z,6.13
2023-03-17T09:28:14.308Z,3.67
2023-03-17T09:33:18.088Z,3.10
2023-03-17T09:38:21.657Z,4.00
2023-03-17T09:43:38.237Z,1.80
2023-03-17T09:48:51.843Z,2.73
2023-03-17T09:54:07.971Z,1.20
2023-03-17T09:59:38.718Z,1.50
2023-03-17T10:04:43.008Z,3.33
2023-03-17T10:09:58.386Z,4.10
2023-03-17T10:15:13.339Z,6.73
2023-03-17T10:20:30.349Z,3.57
2023-03-17T10:25:37.545Z,3.20
2023-03-17T10:30:40.247Z,5.60
2023-03-17T10:35:45.038Z,2.97
2023-03-17T10:41:10.048Z,4.43
2023-03-17T10:46:25.251Z,2.53
2023-03-17T10:51:33.624Z,6.53
2023-03-17T10:56:37.977Z,4.40
2023-03-17T11:01:46.542Z,5.53
2023-03-17T11:06:52.577Z,5.63
2023-03-17T11:12:36.702Z,3.63
2023-03-17T11:17:40.319Z,3.80
2023-03-17T11:22:50.238Z,2.03
2023-03-17T11:28:16.202Z,2.80
2023-03-17T11:33:28.226Z,4.03
2023-03-17T11:38:37.198Z,4.50
2023-03-17T11:44:18.584Z,4.60
2023-03-17T11:49:40.196Z,5.23
2023-03-17T11:55:15.021Z,3.50
2023-03-17T12:00:27.794Z,2.63
2023-03-17T12:05:30.727Z,2.13
2023-03-17T12:10:51.838Z,3.53
2023-03-17T12:16:26.264Z,2.83
2023-03-17T12:21:42.119Z,3.87
2023-03-17T12:26:57.789Z,1.57
2023-03-17T12:32:12.450Z,2.37
2023-03-17T12:37:17.350Z,2.47
2023-03-17T12:42:31.307Z,2.67
2023-03-17T12:48:11.224Z,3.77
2023-03-17T12:53:14.359Z,3.03
2023-03-17T12:58:32.384Z,2.67
2023-03-17T13:03:38.563Z,3.07
2023-03-17T13:08:42.279Z,2.73
2023-03-17T13:13:46.712Z,4.67
2023-03-17T13:18:50.457Z,2.80
2023-03-17T13:23:58.096Z,2.23
2023-03-17T13:29:22.641Z,2.13
2023-03-17T13:34:28.330Z,3.17
2023-03-17T13:40:01.800Z,2.27
2023-03-17T13:45:19.977Z,2.23
2023-03-17T13:50:32.767Z,2.30
2023-03-17T13:55:39.101Z,1.80
2023-03-17T14:00:49.101Z,2.40
2023-03-17T14:05:53.129Z,2.57
2023-03-17T14:11:01.650Z,2.27
2023-03-17T14:16:14.457Z,1.60
2023-03-17T14:21:23.699Z,1.33
2023-03-17T14:26:29.812Z,2.63
2023-03-17T14:31:32.518Z,2.07
2023-03-17T14:36:35.169Z,1.80
2023-03-17T14:41:37.583Z,2.53
2023-03-17T14:46:41.273Z,1.70
2023-03-17T14:51:44.260Z,3.03
2023-03-17T14:56:57.974Z,1.77
2023-03-17T15:02:03.697Z,1.40
2023-03-17T15:07:07.760Z,1.60
2023-03-17T15:12:16.723Z,1.20
2023-03-17T15:17:28.244Z,1.37
2023-03-17T15:22:43.379Z,1.67
2023-03-17T15:27:46.999Z,1.47
2023-03-17T15:33:17.635Z,1.27
2023-03-17T15:38:21.598Z,1.87
2023-03-17T15:43:26.472Z,1.50
2023-03-17T15:48:31.608Z,1.50
2023-03-17T15:53:34.163Z,1.20
2023-03-17T15:58:36.992Z,1.40
2023-03-17T16:03:42.093Z,2.30
2023-03-17T16:08:45.369Z,3.47
2023-03-17T16:13:48.327Z,1.97
2023-03-17T16:18:51.811Z,2.77
2023-03-17T16:23:55.117Z,1.77
2023-03-17T16:28:57.804Z,2.00
2023-03-17T16:34:01.084Z,1.67
2023-03-17T16:39:05.858Z,2.13
2023-03-17T16:44:12.267Z,3.37
2023-03-17T16:49:20.550Z,3.87
2023-03-17T16:54:23.052Z,3.03
2023-03-17T16:59:31.267Z,3.27
2023-03-17T17:04:38.427Z,1.67
2023-03-17T17:09:41.050Z,1.67
2023-03-17T17:14:43.472Z,4.23
2023-03-17T17:19:46.184Z,5.83
2023-03-17T17:24:48.921Z,2.37
2023-03-17T17:29:51.531Z,3.17
2023-03-17T17:34:54.128Z,2.30
2023-03-17T17:39:56.783Z,4.63
2023-03-17T17:44:59.505Z,3.17
2023-03-17T17:50:02.693Z,3.73
2023-03-17T17:55:05.604Z,4.30
2023-03-17T18:00:12.741Z,5.60
2023-03-17T18:05:15.335Z,5.07
2023-03-17T18:10:24.961Z,2.40
2023-03-17T18:15:28.014Z,2.93
2023-03-17T18:20:31.545Z,4.53
2023-03-17T18:25:34.220Z,2.33
2023-03-17T18:30:36.815Z,3.20
2023-03-17T18:35:39.935Z,3.70
2023-03-17T18:40:43.230Z,5.70
2023-03-17T18:45:45.818Z,3.33
2023-03-17T18:50:48.867Z,3.60
2023-03-17T18:55:51.354Z,2.90
2023-03-17T19:00:59.993Z,3.37
2023-03-17T19:06:11.754Z,3.63
2023-03-17T19:11:16.544Z,3.70
2023-03-17T19:16:19.592Z,2.23
2023-03-17T19:21:22.986Z,3.20
2023-03-17T19:26:25.570Z,2.80
2023-03-17T19:31:28.275Z,3.00
2023-03-17T19:36:37.148Z,3.17
2023-03-17T19:41:39.628Z,3.53
2023-03-17T19:46:42.083Z,2.97
2023-03-17T19:51:44.883Z,2.83
2023-03-17T19:56:47.382Z,4.20
2023-03-17T20:01:50.433Z,3.47
2023-03-17T20:06:57.533Z,2.63
2023-03-17T20:12:01.992Z,3.00
2023-03-17T20:17:04.589Z,4.00
2023-03-17T20:22:07.718Z,2.70
2023-03-17T20:27:14.225Z,4.40
2023-03-17T20:32:17.435Z,3.77
2023-03-17T20:37:19.966Z,2.90
2023-03-17T20:42:22.817Z,2.20
2023-03-17T20:47:25.817Z,4.17
2023-03-17T20:52:30.213Z,6.73
2023-03-17T20:57:33.909Z,3.03
2023-03-17T21:02:36.748Z,5.47
2023-03-17T21:07:39.395Z,7.00
2023-03-17T21:12:42.260Z,7.97
2023-03-17T21:17:44.697Z,7.10
2023-03-17T21:22:47.993Z,7.60
2023-03-17T21:27:50.956Z,8.33
2023-03-17T21:32:54.929Z,11.17
2023-03-17T21:37:58.476Z,12.23
2023-03-17T21:43:01.766Z,12.57
2023-03-17T21:48:04.404Z,14.33
2023-03-17T21:53:07.461Z,11.57
2023-03-17T21:58:09.966Z,11.77
2023-03-17T22:03:12.593Z,8.10
2023-03-17T22:08:15.364Z,9.87
2023-03-17T22:13:18.128Z,7.63
2023-03-17T22:18:20.557Z,6.23
2023-03-17T22:23:23.821Z,8.63
2023-03-17T22:28:26.491Z,7.47
2023-03-17T22:33:29.273Z,5.87
2023-03-17T22:38:32.006Z,2.00
2023-03-17T22:43:35.607Z,1.30
2023-03-17T22:48:38.191Z,2.70
2023-03-17T22:53:41.259Z,2.07
2023-03-17T22:58:45.093Z,1.60
2023-03-17T23:03:47.642Z,2.13
2023-03-17T23:08:50.636Z,2.70
2023-03-17T23:13:54.227Z,2.13
2023-03-17T23:18:56.940Z,2.20
2023-03-17T23:24:00.667Z,2.20
2023-03-17T23:29:05.134Z,1.30
2023-03-17T23:34:08.484Z,1.60
2023-03-17T23:39:10.889Z,2.40
2023-03-17T23:44:14.421Z,4.10
2023-03-17T23:49:17.192Z,2.00
2023-03-17T23:54:19.639Z,2.87
2023-03-17T23:59:22.157Z,1.47
